FAMM/MBD METAR and TAF weather

Enter ICAO airport designator
Station Type Date Time Source
FAMM METAR 2020/05/30 05:00 UTC NOAA

FAMM 300500Z AUTO 10002KT //// // ////// 04/M02 Q1026


Station Type Date Time Source
FAMM Decoded METAR 2020/05/30 05:00 UTC NOAA

Mafikeng Intl. Ad, South Africa (FAMM) 25-47S 025-32E 1300M
May 30, 2020 - 01:00 AM EDT / 2020.05.30 0500 UTC
Wind: from the E (100 degrees) at 2 MPH (2 KT):0
Temperature: 39 F (4 C)
Dew Point: 28 F (-2 C)
Relative Humidity: 64%
Pressure (altimeter): 30.30 in. Hg (1026 hPa)
ob: FAMM 300500Z AUTO 10002KT //// // ////// 04/M02 Q1026
cycle: 5

Station Type Date Time Source
FAMM TAF 2019/01/01 10:00 UTC NOAA

TAF FAMM 010900Z 0110/0118 04008KT 9999 BKN015
BECMG 0111/0113 34010KT BKN025 TX25/0113Z TN22/0118Z

Example: see airport list